^^
Station Historical Data
Daily Summary for July 19, 2017 Units:  Both    English   Metric
« Previous Day
Next Day »
Daily Weekly Monthly Yearly Custom
  High: Low: Average:
Temperature: 79.0 °F /  26.1 °C 40.8 °F /  4.9 °C 58.8 °F /  14.9 °C
Dew Point: 26.8 °F /  -2.9 °C 19.9 °F /  -6.7 °C 22.6 °F /  -5.2 °C
Humidity: 48% 12% 27%
Wind Speed: 6.9mph /  11.1km/h - 0.4mph /  0.6km/h
Wind Gust: 9.0mph /  14.5km/h - -
Wind- - South
Pressure: 30.45 in /  1031 hPa 30.12 in /  1019.9 hPa -
Precipitation: 0.00 in /  0 mm    
Historical Graphs
 
 
Tabular Data for July 19, 2017
Time Temperature Dew Point Pressure Wind Wind Speed Wind Gust Humidity Rainfall Rate (Hourly) solar Conditions
00:00 47.8 °F /  8.8 °C 22.1 °F /  -5.5 °C 30.45in /  1031hPa Calm     36% 0.00in /  0mm 0.0 W/m2
00:06 47.7 °F /  8.7 °C 22.1 °F /  -5.5 °C 30.45in /  1031hPa Calm     36% 0.00in /  0mm 0.0 W/m2
00:12 47.3 °F /  8.5 °C 22.3 °F /  -5.4 °C 30.45in /  1031hPa Calm     37% 0.00in /  0mm 0.0 W/m2
00:18 46.9 °F /  8.3 °C 22.1 °F /  -5.5 °C 30.45in /  1031hPa Calm     37% 0.00in /  0mm 0.0 W/m2
00:24 46.6 °F /  8.1 °C 22.3 °F /  -5.4 °C 30.45in /  1031hPa Calm     38% 0.00in /  0mm 0.0 W/m2
00:30 46.2 °F /  7.9 °C 21.9 °F /  -5.6 °C 30.44in /  1030.7hPa Calm     38% 0.00in /  0mm 0.0 W/m2
00:36 46.0 °F /  7.8 °C 22.5 °F /  -5.3 °C 30.44in /  1030.7hPa Calm     39% 0.00in /  0mm 0.0 W/m2
00:42 45.9 °F /  7.7 °C 22.3 °F /  -5.4 °C 30.44in /  1030.7hPa Calm     39% 0.00in /  0mm 0.0 W/m2
00:48 45.9 °F /  7.7 °C 22.3 °F /  -5.4 °C 30.44in /  1030.7hPa Calm     39% 0.00in /  0mm 0.0 W/m2
00:54 45.9 °F /  7.7 °C 21.7 °F /  -5.7 °C 30.44in /  1030.7hPa Calm     38% 0.00in /  0mm 0.0 W/m2
01:00 46.0 °F /  7.8 °C 21.9 °F /  -5.6 °C 30.43in /  1030.4hPa Calm   1.0mph /  1.6km/h 38% 0.00in /  0mm 0.0 W/m2
01:06 46.6 °F /  8.1 °C 22.3 °F /  -5.4 °C 30.43in /  1030.4hPa East 0.9mph /  1.4km/h 1.0mph /  1.6km/h 38% 0.00in /  0mm 0.0 W/m2
01:12 46.9 °F /  8.3 °C 22.1 °F /  -5.5 °C 30.43in /  1030.4hPa Calm   1.0mph /  1.6km/h 37% 0.00in /  0mm 0.0 W/m2
01:18 47.5 °F /  8.6 °C 21.9 °F /  -5.6 °C 30.43in /  1030.4hPa Calm   4.0mph /  6.4km/h 36% 0.00in /  0mm 0.0 W/m2
01:24 47.7 °F /  8.7 °C 22.1 °F /  -5.5 °C 30.43in /  1030.4hPa ESE 0.9mph /  1.4km/h 2.0mph /  3.2km/h 36% 0.00in /  0mm 0.0 W/m2
01:30 47.8 °F /  8.8 °C 21.6 °F /  -5.8 °C 30.42in /  1030hPa Calm   1.0mph /  1.6km/h 35% 0.00in /  0mm 0.0 W/m2
01:36 48.0 °F /  8.9 °C 22.3 °F /  -5.4 °C 30.43in /  1030.4hPa Calm   1.0mph /  1.6km/h 36% 0.00in /  0mm 0.0 W/m2
01:43 48.0 °F /  8.9 °C 21.7 °F /  -5.7 °C 30.43in /  1030.4hPa Calm   1.0mph /  1.6km/h 35% 0.00in /  0mm 0.0 W/m2
01:49 48.2 °F /  9 °C 21.7 °F /  -5.7 °C 30.42in /  1030hPa Calm     35% 0.00in /  0mm 0.0 W/m2
01:55 48.2 °F /  9 °C 22.5 °F /  -5.3 °C 30.42in /  1030hPa Calm     36% 0.00in /  0mm 0.0 W/m2
02:01 47.8 °F /  8.8 °C 22.1 °F /  -5.5 °C 30.42in /  1030hPa Calm     36% 0.00in /  0mm 0.0 W/m2
02:07 47.7 °F /  8.7 °C 22.1 °F /  -5.5 °C 30.43in /  1030.4hPa Calm     36% 0.00in /  0mm 0.0 W/m2
02:13 47.1 °F /  8.4 °C 22.1 °F /  -5.5 °C 30.43in /  1030.4hPa Calm   1.0mph /  1.6km/h 37% 0.00in /  0mm 0.0 W/m2
02:19 46.8 °F /  8.2 °C 21.9 °F /  -5.6 °C 30.42in /  1030hPa Calm     37% 0.00in /  0mm 0.0 W/m2
02:25 46.2 °F /  7.9 °C 21.9 °F /  -5.6 °C 30.43in /  1030.4hPa Calm     38% 0.00in /  0mm 0.0 W/m2
02:31 45.9 °F /  7.7 °C 22.3 °F /  -5.4 °C 30.22in /  1023.2hPa Calm     39% 0.00in /  0mm 0.0 W/m2
02:37 45.3 °F /  7.4 °C 22.5 °F /  -5.3 °C 30.21in /  1022.9hPa Calm     40% 0.00in /  0mm 0.0 W/m2
02:43 45.0 °F /  7.2 °C 22.1 °F /  -5.5 °C 30.21in /  1022.9hPa Calm     40% 0.00in /  0mm 0.0 W/m2
02:49 44.2 °F /  6.8 °C 22.1 °F /  -5.5 °C 30.21in /  1022.9hPa Calm     41% 0.00in /  0mm 0.0 W/m2
02:55 44.1 °F /  6.7 °C 21.9 °F /  -5.6 °C 30.22in /  1023.2hPa Calm   1.0mph /  1.6km/h 41% 0.00in /  0mm 0.0 W/m2
03:01 44.1 °F /  6.7 °C 21.9 °F /  -5.6 °C 30.22in /  1023.2hPa Calm     41% 0.00in /  0mm 0.0 W/m2
03:07 44.1 °F /  6.7 °C 22.5 °F /  -5.3 °C 30.22in /  1023.2hPa Calm     42% 0.00in /  0mm 0.0 W/m2
03:13 43.9 °F /  6.6 °C 21.7 °F /  -5.7 °C 30.22in /  1023.2hPa Calm     41% 0.00in /  0mm 0.0 W/m2
03:19 43.9 °F /  6.6 °C 22.3 °F /  -5.4 °C 30.22in /  1023.2hPa Calm     42% 0.00in /  0mm 0.0 W/m2
03:25 43.7 °F /  6.5 °C 22.1 °F /  -5.5 °C 30.22in /  1023.2hPa Calm     42% 0.00in /  0mm 0.0 W/m2
03:31 43.5 °F /  6.4 °C 22.5 °F /  -5.3 °C 30.22in /  1023.2hPa Calm     43% 0.00in /  0mm 0.0 W/m2
03:37 43.3 °F /  6.3 °C 22.3 °F /  -5.4 °C 30.22in /  1023.2hPa Calm     43% 0.00in /  0mm 0.0 W/m2
03:43 43.3 °F /  6.3 °C 22.8 °F /  -5.1 °C 30.22in /  1023.2hPa Calm     44% 0.00in /  0mm 0.0 W/m2
03:49 43.2 °F /  6.2 °C 22.1 °F /  -5.5 °C 30.22in /  1023.2hPa Calm     43% 0.00in /  0mm 0.0 W/m2
03:55 43.0 °F /  6.1 °C 22.1 °F /  -5.5 °C 30.21in /  1022.9hPa Calm     43% 0.00in /  0mm 0.0 W/m2
04:01 43.0 °F /  6.1 °C 22.1 °F /  -5.5 °C 30.21in /  1022.9hPa Calm     43% 0.00in /  0mm 0.0 W/m2
04:08 43.0 °F /  6.1 °C 22.6 °F /  -5.2 °C 30.21in /  1022.9hPa Calm     44% 0.00in /  0mm 0.0 W/m2
04:14 43.0 °F /  6.1 °C 23.2 °F /  -4.9 °C 30.21in /  1022.9hPa Calm     45% 0.00in /  0mm 0.0 W/m2
04:20 42.8 °F /  6 °C 22.5 °F /  -5.3 °C 30.20in /  1022.6hPa Calm     44% 0.00in /  0mm 0.0 W/m2
04:26 42.6 °F /  5.9 °C 21.7 °F /  -5.7 °C 30.20in /  1022.6hPa Calm   2.0mph /  3.2km/h 43% 0.00in /  0mm 0.0 W/m2
04:32 43.2 °F /  6.2 °C 22.1 °F /  -5.5 °C 30.21in /  1022.9hPa Calm     43% 0.00in /  0mm 0.0 W/m2
04:38 43.3 °F /  6.3 °C 21.7 °F /  -5.7 °C 30.22in /  1023.2hPa Calm     42% 0.00in /  0mm 0.0 W/m2
04:44 43.2 °F /  6.2 °C 22.1 °F /  -5.5 °C 30.22in /  1023.2hPa Calm     43% 0.00in /  0mm 0.0 W/m2
04:50 43.0 °F /  6.1 °C 22.1 °F /  -5.5 °C 30.21in /  1022.9hPa Calm     43% 0.00in /  0mm 0.0 W/m2
04:56 42.6 °F /  5.9 °C 23.4 °F /  -4.8 °C 30.21in /  1022.9hPa Calm     46% 0.00in /  0mm 0.0 W/m2
05:02 42.4 °F /  5.8 °C 23.7 °F /  -4.6 °C 30.21in /  1022.9hPa Calm     47% 0.00in /  0mm 0.0 W/m2
05:09 42.3 °F /  5.7 °C 22.5 °F /  -5.3 °C 30.21in /  1022.9hPa Calm   1.0mph /  1.6km/h 45% 0.00in /  0mm 0.0 W/m2
05:17 43.2 °F /  6.2 °C 22.1 °F /  -5.5 °C 30.22in /  1023.2hPa Calm   1.0mph /  1.6km/h 43% 0.00in /  0mm 0.0 W/m2
05:23 43.5 °F /  6.4 °C 22.5 °F /  -5.3 °C 30.22in /  1023.2hPa Calm   1.0mph /  1.6km/h 43% 0.00in /  0mm 0.0 W/m2
05:29 43.5 °F /  6.4 °C 21.9 °F /  -5.6 °C 30.22in /  1023.2hPa Calm     42% 0.00in /  0mm 0.0 W/m2
05:35 43.2 °F /  6.2 °C 21.6 °F /  -5.8 °C 30.22in /  1023.2hPa Calm     42% 0.00in /  0mm 0.0 W/m2
05:41 42.6 °F /  5.9 °C 21.7 °F /  -5.7 °C 30.22in /  1023.2hPa Calm     43% 0.00in /  0mm 0.0 W/m2
05:47 42.1 °F /  5.6 °C 21.7 °F /  -5.7 °C 30.22in /  1023.2hPa Calm     44% 0.00in /  0mm 0.0 W/m2
05:53 41.5 °F /  5.3 °C 22.3 °F /  -5.4 °C 30.23in /  1023.6hPa Calm     46% 0.00in /  0mm 0.0 W/m2
05:59 41.4 °F /  5.2 °C 22.6 °F /  -5.2 °C 30.22in /  1023.2hPa Calm     47% 0.00in /  0mm 0.0 W/m2
06:05 41.2 °F /  5.1 °C 23.0 °F /  -5 °C 30.22in /  1023.2hPa Calm   1.0mph /  1.6km/h 48% 0.00in /  0mm 0.0 W/m2
06:11 41.0 °F /  5 °C 22.3 °F /  -5.4 °C 30.23in /  1023.6hPa Calm     47% 0.00in /  0mm 0.0 W/m2
06:17 41.0 °F /  5 °C 22.3 °F /  -5.4 °C 30.23in /  1023.6hPa Calm     47% 0.00in /  0mm 0.0 W/m2
06:24 40.8 °F /  4.9 °C 22.1 °F /  -5.5 °C 30.23in /  1023.6hPa Calm     47% 0.00in /  0mm 0.0 W/m2
06:30 40.8 °F /  4.9 °C 22.1 °F /  -5.5 °C 30.23in /  1023.6hPa Calm     47% 0.00in /  0mm 0.0 W/m2
06:36 41.2 °F /  5.1 °C 21.9 °F /  -5.6 °C 30.23in /  1023.6hPa Calm   4.0mph /  6.4km/h 46% 0.00in /  0mm 5.0 W/m2
06:42 41.9 °F /  5.5 °C 22.6 °F /  -5.2 °C 30.23in /  1023.6hPa Calm     46% 0.00in /  0mm 7.0 W/m2
06:48 43.0 °F /  6.1 °C 22.6 °F /  -5.2 °C 30.23in /  1023.6hPa Calm     44% 0.00in /  0mm 9.0 W/m2
06:54 43.7 °F /  6.5 °C 23.2 °F /  -4.9 °C 30.23in /  1023.6hPa Calm     44% 0.00in /  0mm 11.0 W/m2
07:00 44.1 °F /  6.7 °C 23.5 °F /  -4.7 °C 30.23in /  1023.6hPa Calm     44% 0.00in /  0mm 12.0 W/m2
07:06 44.1 °F /  6.7 °C 23.5 °F /  -4.7 °C 30.23in /  1023.6hPa Calm     44% 0.00in /  0mm 14.0 W/m2
07:12 44.4 °F /  6.9 °C 23.4 °F /  -4.8 °C 30.24in /  1023.9hPa Calm     43% 0.00in /  0mm 14.0 W/m2
07:19 45.0 °F /  7.2 °C 23.2 °F /  -4.9 °C 30.23in /  1023.6hPa Calm     42% 0.00in /  0mm 16.0 W/m2
07:25 45.1 °F /  7.3 °C 23.9 °F /  -4.5 °C 30.23in /  1023.6hPa Calm     43% 0.00in /  0mm 18.0 W/m2
07:31 45.3 °F /  7.4 °C 23.5 °F /  -4.7 °C 30.23in /  1023.6hPa Calm     42% 0.00in /  0mm 19.0 W/m2
07:37 45.3 °F /  7.4 °C 24.1 °F /  -4.4 °C 30.23in /  1023.6hPa Calm     43% 0.00in /  0mm 19.0 W/m2
07:43 45.7 °F /  7.6 °C 25.0 °F /  -3.9 °C 30.24in /  1023.9hPa Calm     44% 0.00in /  0mm 21.0 W/m2
07:49 46.2 °F /  7.9 °C 26.1 °F /  -3.3 °C 30.24in /  1023.9hPa Calm     45% 0.00in /  0mm 21.0 W/m2
07:55 46.9 °F /  8.3 °C 26.2 °F /  -3.2 °C 30.24in /  1023.9hPa Calm     44% 0.00in /  0mm 23.0 W/m2
08:01 47.8 °F /  8.8 °C 26.4 °F /  -3.1 °C 30.24in /  1023.9hPa Calm     43% 0.00in /  0mm 23.0 W/m2
08:07 48.9 °F /  9.4 °C 26.2 °F /  -3.2 °C 30.25in /  1024.3hPa ENE 2.0mph /  3.2km/h 2.0mph /  3.2km/h 41% 0.00in /  0mm 25.0 W/m2
08:13 51.6 °F /  10.9 °C 24.8 °F /  -4 °C 30.25in /  1024.3hPa Calm   4.0mph /  6.4km/h 35% 0.00in /  0mm 56.0 W/m2
08:19 54.7 °F /  12.6 °C 25.3 °F /  -3.7 °C 30.25in /  1024.3hPa ESE 0.9mph /  1.4km/h 4.0mph /  6.4km/h 32% 0.00in /  0mm 350.0 W/m2
08:25 57.4 °F /  14.1 °C 25.3 °F /  -3.7 °C 30.26in /  1024.6hPa Calm   2.0mph /  3.2km/h 29% 0.00in /  0mm 367.0 W/m2
08:31 59.2 °F /  15.1 °C 25.2 °F /  -3.8 °C 30.26in /  1024.6hPa Calm   1.0mph /  1.6km/h 27% 0.00in /  0mm 388.0 W/m2
08:37 60.8 °F /  16 °C 24.8 °F /  -4 °C 30.26in /  1024.6hPa Calm     25% 0.00in /  0mm 410.0 W/m2
08:43 62.4 °F /  16.9 °C 24.1 °F /  -4.4 °C 30.26in /  1024.6hPa Calm   4.0mph /  6.4km/h 23% 0.00in /  0mm 429.0 W/m2
08:50 63.3 °F /  17.4 °C 24.8 °F /  -4 °C 30.26in /  1024.6hPa Calm     23% 0.00in /  0mm 446.0 W/m2
08:56 64.6 °F /  18.1 °C 24.8 °F /  -4 °C 30.26in /  1024.6hPa Calm   1.0mph /  1.6km/h 22% 0.00in /  0mm 466.0 W/m2
09:02 65.5 °F /  18.6 °C 24.4 °F /  -4.2 °C 30.26in /  1024.6hPa Calm     21% 0.00in /  0mm 482.0 W/m2
09:08 65.5 °F /  18.6 °C 25.7 °F /  -3.5 °C 30.26in /  1024.6hPa Calm     22% 0.00in /  0mm 499.0 W/m2
09:14 65.7 °F /  18.7 °C 24.6 °F /  -4.1 °C 30.26in /  1024.6hPa Calm   2.0mph /  3.2km/h 21% 0.00in /  0mm 517.0 W/m2
09:20 66.6 °F /  19.2 °C 25.3 °F /  -3.7 °C 30.25in /  1024.3hPa Calm   1.0mph /  1.6km/h 21% 0.00in /  0mm 533.0 W/m2
09:26 66.6 °F /  19.2 °C 25.3 °F /  -3.7 °C 30.26in /  1024.6hPa Calm   2.0mph /  3.2km/h 21% 0.00in /  0mm 547.0 W/m2
09:33 66.6 °F /  19.2 °C 25.3 °F /  -3.7 °C 30.25in /  1024.3hPa Calm   3.0mph /  4.8km/h 21% 0.00in /  0mm 561.0 W/m2
09:39 66.4 °F /  19.1 °C 25.3 °F /  -3.7 °C 30.26in /  1024.6hPa Calm   4.0mph /  6.4km/h 21% 0.00in /  0mm 575.0 W/m2
09:45 66.4 °F /  19.1 °C 25.3 °F /  -3.7 °C 30.25in /  1024.3hPa Calm   3.0mph /  4.8km/h 21% 0.00in /  0mm 589.0 W/m2
09:51 66.7 °F /  19.3 °C 25.5 °F /  -3.6 °C 30.25in /  1024.3hPa NW 0.9mph /  1.4km/h 1.0mph /  1.6km/h 21% 0.00in /  0mm 603.0 W/m2
09:57 67.6 °F /  19.8 °C 25.2 °F /  -3.8 °C 30.25in /  1024.3hPa Calm   2.0mph /  3.2km/h 20% 0.00in /  0mm 617.0 W/m2
10:03 67.6 °F /  19.8 °C 25.2 °F /  -3.8 °C 30.24in /  1023.9hPa Calm     20% 0.00in /  0mm 626.0 W/m2
10:09 68.2 °F /  20.1 °C 25.5 °F /  -3.6 °C 30.24in /  1023.9hPa Calm     20% 0.00in /  0mm 636.0 W/m2
10:15 69.3 °F /  20.7 °C 25.2 °F /  -3.8 °C 30.24in /  1023.9hPa Calm   1.0mph /  1.6km/h 19% 0.00in /  0mm 649.0 W/m2
10:21 69.6 °F /  20.9 °C 24.3 °F /  -4.3 °C 30.24in /  1023.9hPa NNE 2.0mph /  3.2km/h 4.0mph /  6.4km/h 18% 0.00in /  0mm 659.0 W/m2
10:28 70.5 °F /  21.4 °C 25.0 °F /  -3.9 °C 30.23in /  1023.6hPa Calm     18% 0.00in /  0mm 670.0 W/m2
10:34 71.2 °F /  21.8 °C 25.5 °F /  -3.6 °C 30.23in /  1023.6hPa Calm   3.0mph /  4.8km/h 18% 0.00in /  0mm 677.0 W/m2
10:40 71.2 °F /  21.8 °C 25.5 °F /  -3.6 °C 30.23in /  1023.6hPa Calm   5.0mph /  8km/h 18% 0.00in /  0mm 687.0 W/m2
10:46 71.6 °F /  22 °C 25.9 °F /  -3.4 °C 30.22in /  1023.2hPa Calm   1.0mph /  1.6km/h 18% 0.00in /  0mm 693.0 W/m2
10:52 72.3 °F /  22.4 °C 25.0 °F /  -3.9 °C 30.22in /  1023.2hPa Calm   1.0mph /  1.6km/h 17% 0.00in /  0mm 696.0 W/m2
10:58 72.9 °F /  22.7 °C 25.5 °F /  -3.6 °C 30.22in /  1023.2hPa Calm   1.0mph /  1.6km/h 17% 0.00in /  0mm 703.0 W/m2
11:05 72.5 °F /  22.5 °C 25.2 °F /  -3.8 °C 30.22in /  1023.2hPa Calm   1.0mph /  1.6km/h 17% 0.00in /  0mm 710.0 W/m2
11:11 72.3 °F /  22.4 °C 25.0 °F /  -3.9 °C 30.21in /  1022.9hPa Calm   1.0mph /  1.6km/h 17% 0.00in /  0mm 719.0 W/m2
11:17 72.9 °F /  22.7 °C 25.5 °F /  -3.6 °C 30.21in /  1022.9hPa Calm   2.0mph /  3.2km/h 17% 0.00in /  0mm 722.0 W/m2
11:23 73.4 °F /  23 °C 25.9 °F /  -3.4 °C 30.21in /  1022.9hPa NNW 0.9mph /  1.4km/h 2.0mph /  3.2km/h 17% 0.00in /  0mm 721.0 W/m2
11:29 73.8 °F /  23.2 °C 26.2 °F /  -3.2 °C 30.21in /  1022.9hPa NNW 2.0mph /  3.2km/h 4.0mph /  6.4km/h 17% 0.00in /  0mm 724.0 W/m2
11:35 73.6 °F /  23.1 °C 26.1 °F /  -3.3 °C 30.20in /  1022.6hPa SW 0.9mph /  1.4km/h 5.0mph /  8km/h 17% 0.00in /  0mm 728.0 W/m2
11:41 73.8 °F /  23.2 °C 26.2 °F /  -3.2 °C 30.20in /  1022.6hPa NNW 0.9mph /  1.4km/h 3.0mph /  4.8km/h 17% 0.00in /  0mm 728.0 W/m2
11:47 74.5 °F /  23.6 °C 26.8 °F /  -2.9 °C 30.20in /  1022.6hPa Calm   2.0mph /  3.2km/h 17% 0.00in /  0mm 726.0 W/m2
11:53 74.5 °F /  23.6 °C 25.3 °F /  -3.7 °C 30.19in /  1022.2hPa WNW 0.9mph /  1.4km/h 6.0mph /  9.7km/h 16% 0.00in /  0mm 728.0 W/m2
12:00 74.5 °F /  23.6 °C 25.3 °F /  -3.7 °C 30.19in /  1022.2hPa Calm   2.0mph /  3.2km/h 16% 0.00in /  0mm 724.0 W/m2
12:06 74.1 °F /  23.4 °C 25.0 °F /  -3.9 °C 30.18in /  1021.9hPa Calm   3.0mph /  4.8km/h 16% 0.00in /  0mm 719.0 W/m2
12:12 74.1 °F /  23.4 °C 25.0 °F /  -3.9 °C 30.18in /  1021.9hPa Calm   2.0mph /  3.2km/h 16% 0.00in /  0mm 719.0 W/m2
12:18 74.5 °F /  23.6 °C 25.3 °F /  -3.7 °C 30.17in /  1021.6hPa Calm   2.0mph /  3.2km/h 16% 0.00in /  0mm 722.0 W/m2
12:24 74.8 °F /  23.8 °C 25.7 °F /  -3.5 °C 30.17in /  1021.6hPa Calm   7.0mph /  11.3km/h 16% 0.00in /  0mm 717.0 W/m2
12:30 75.0 °F /  23.9 °C 25.7 °F /  -3.5 °C 30.17in /  1021.6hPa Calm   2.0mph /  3.2km/h 16% 0.00in /  0mm 708.0 W/m2
12:36 75.4 °F /  24.1 °C 26.1 °F /  -3.3 °C 30.17in /  1021.6hPa Calm   2.0mph /  3.2km/h 16% 0.00in /  0mm 705.0 W/m2
12:43 75.7 °F /  24.3 °C 24.8 °F /  -4 °C 30.16in /  1021.2hPa WSW 0.9mph /  1.4km/h 5.0mph /  8km/h 15% 0.00in /  0mm 696.0 W/m2
12:49 75.6 °F /  24.2 °C 24.6 °F /  -4.1 °C 30.16in /  1021.2hPa North 4.0mph /  6.4km/h 6.0mph /  9.7km/h 15% 0.00in /  0mm 694.0 W/m2
12:55 75.9 °F /  24.4 °C 25.0 °F /  -3.9 °C 30.16in /  1021.2hPa WSW 2.0mph /  3.2km/h 3.0mph /  4.8km/h 15% 0.00in /  0mm 691.0 W/m2
13:01 76.3 °F /  24.6 °C 25.2 °F /  -3.8 °C 30.15in /  1020.9hPa NE 0.9mph /  1.4km/h 2.0mph /  3.2km/h 15% 0.00in /  0mm 684.0 W/m2
13:07 76.6 °F /  24.8 °C 25.5 °F /  -3.6 °C 30.15in /  1020.9hPa Calm   5.0mph /  8km/h 15% 0.00in /  0mm 679.0 W/m2
13:13 76.8 °F /  24.9 °C 24.1 °F /  -4.4 °C 30.15in /  1020.9hPa WSW 2.0mph /  3.2km/h 3.0mph /  4.8km/h 14% 0.00in /  0mm 666.0 W/m2
13:19 76.6 °F /  24.8 °C 23.9 °F /  -4.5 °C 30.15in /  1020.9hPa Calm   2.0mph /  3.2km/h 14% 0.00in /  0mm 656.0 W/m2
13:26 76.8 °F /  24.9 °C 24.1 °F /  -4.4 °C 30.15in /  1020.9hPa Calm   5.0mph /  8km/h 14% 0.00in /  0mm 647.0 W/m2
13:32 77.2 °F /  25.1 °C 24.3 °F /  -4.3 °C 30.14in /  1020.5hPa Calm   5.0mph /  8km/h 14% 0.00in /  0mm 635.0 W/m2
13:38 77.2 °F /  25.1 °C 24.3 °F /  -4.3 °C 30.14in /  1020.5hPa WSW 2.0mph /  3.2km/h 3.0mph /  4.8km/h 14% 0.00in /  0mm 628.0 W/m2
13:44 77.2 °F /  25.1 °C 22.5 °F /  -5.3 °C 30.14in /  1020.5hPa NNE 2.0mph /  3.2km/h 2.0mph /  3.2km/h 13% 0.00in /  0mm 610.0 W/m2
13:50 77.2 °F /  25.1 °C 24.3 °F /  -4.3 °C 30.14in /  1020.5hPa Calm   3.0mph /  4.8km/h 14% 0.00in /  0mm 601.0 W/m2
13:56 77.4 °F /  25.2 °C 22.6 °F /  -5.2 °C 30.14in /  1020.5hPa Calm   2.0mph /  3.2km/h 13% 0.00in /  0mm 589.0 W/m2
14:02 77.7 °F /  25.4 °C 24.8 °F /  -4 °C 30.14in /  1020.5hPa Calm   3.0mph /  4.8km/h 14% 0.00in /  0mm 577.0 W/m2
14:08 78.1 °F /  25.6 °C 23.2 °F /  -4.9 °C 30.14in /  1020.5hPa Calm   3.0mph /  4.8km/h 13% 0.00in /  0mm 564.0 W/m2
14:14 78.3 °F /  25.7 °C 23.4 °F /  -4.8 °C 30.14in /  1020.5hPa NE 0.9mph /  1.4km/h 4.0mph /  6.4km/h 13% 0.00in /  0mm 548.0 W/m2
14:20 78.3 °F /  25.7 °C 23.4 °F /  -4.8 °C 30.14in /  1020.5hPa WSW 0.9mph /  1.4km/h 3.0mph /  4.8km/h 13% 0.00in /  0mm 534.0 W/m2
14:26 78.3 °F /  25.7 °C 23.4 °F /  -4.8 °C 30.14in /  1020.5hPa North 2.0mph /  3.2km/h 2.0mph /  3.2km/h 13% 0.00in /  0mm 517.0 W/m2
14:33 78.4 °F /  25.8 °C 21.6 °F /  -5.8 °C 30.14in /  1020.5hPa Calm   2.0mph /  3.2km/h 12% 0.00in /  0mm 503.0 W/m2
14:39 78.6 °F /  25.9 °C 21.7 °F /  -5.7 °C 30.14in /  1020.5hPa ENE 0.9mph /  1.4km/h 3.0mph /  4.8km/h 12% 0.00in /  0mm 485.0 W/m2
14:45 78.6 °F /  25.9 °C 23.7 °F /  -4.6 °C 30.14in /  1020.5hPa SSW 4.9mph /  7.9km/h 5.0mph /  8km/h 13% 0.00in /  0mm 468.0 W/m2
14:51 78.6 °F /  25.9 °C 23.7 °F /  -4.6 °C 30.14in /  1020.5hPa Calm   1.0mph /  1.6km/h 13% 0.00in /  0mm 454.0 W/m2
14:57 78.8 °F /  26 °C 21.9 °F /  -5.6 °C 30.13in /  1020.2hPa Calm   1.0mph /  1.6km/h 12% 0.00in /  0mm 438.0 W/m2
15:03 78.8 °F /  26 °C 21.9 °F /  -5.6 °C 30.13in /  1020.2hPa NNE 0.9mph /  1.4km/h 3.0mph /  4.8km/h 12% 0.00in /  0mm 418.0 W/m2
15:09 79.0 °F /  26.1 °C 22.1 °F /  -5.5 °C 30.13in /  1020.2hPa NNW 0.9mph /  1.4km/h 3.0mph /  4.8km/h 12% 0.00in /  0mm 399.0 W/m2
15:15 78.8 °F /  26 °C 21.9 °F /  -5.6 °C 30.13in /  1020.2hPa WSW 2.0mph /  3.2km/h 5.0mph /  8km/h 12% 0.00in /  0mm 381.0 W/m2
15:21 78.4 °F /  25.8 °C 21.6 °F /  -5.8 °C 30.13in /  1020.2hPa SW 4.0mph /  6.4km/h 4.0mph /  6.4km/h 12% 0.00in /  0mm 357.0 W/m2
15:28 78.3 °F /  25.7 °C 21.6 °F /  -5.8 °C 30.12in /  1019.9hPa Calm   2.0mph /  3.2km/h 12% 0.00in /  0mm 339.0 W/m2
15:34 77.7 °F /  25.4 °C 23.0 °F /  -5 °C 30.12in /  1019.9hPa Calm   3.0mph /  4.8km/h 13% 0.00in /  0mm 320.0 W/m2
15:40 77.4 °F /  25.2 °C 22.6 °F /  -5.2 °C 30.13in /  1020.2hPa Calm   7.0mph /  11.3km/h 13% 0.00in /  0mm 46.0 W/m2
15:46 77.2 °F /  25.1 °C 22.5 °F /  -5.3 °C 30.13in /  1020.2hPa Calm   1.0mph /  1.6km/h 13% 0.00in /  0mm 42.0 W/m2
15:52 77.0 °F /  25 °C 22.5 °F /  -5.3 °C 30.13in /  1020.2hPa Calm     13% 0.00in /  0mm 39.0 W/m2
15:58 76.6 °F /  24.8 °C 22.1 °F /  -5.5 °C 30.13in /  1020.2hPa Calm   1.0mph /  1.6km/h 13% 0.00in /  0mm 37.0 W/m2
16:04 76.5 °F /  24.7 °C 21.9 °F /  -5.6 °C 30.13in /  1020.2hPa NNW 2.0mph /  3.2km/h 5.0mph /  8km/h 13% 0.00in /  0mm 35.0 W/m2
16:11 75.9 °F /  24.4 °C 21.6 °F /  -5.8 °C 30.13in /  1020.2hPa NW 0.9mph /  1.4km/h 4.0mph /  6.4km/h 13% 0.00in /  0mm 32.0 W/m2
16:17 75.7 °F /  24.3 °C 21.4 °F /  -5.9 °C 30.13in /  1020.2hPa Calm   3.0mph /  4.8km/h 13% 0.00in /  0mm 28.0 W/m2
16:23 75.4 °F /  24.1 °C 22.8 °F /  -5.1 °C 30.14in /  1020.5hPa WSW 2.0mph /  3.2km/h 3.0mph /  4.8km/h 14% 0.00in /  0mm 25.0 W/m2
16:29 75.0 °F /  23.9 °C 20.8 °F /  -6.2 °C 30.14in /  1020.5hPa SSW 2.0mph /  3.2km/h 5.0mph /  8km/h 13% 0.00in /  0mm 23.0 W/m2
16:31 75.0 °F /  23.9 °C 20.8 °F /  -6.2 °C 30.14in /  1020.5hPa Calm   4.0mph /  6.4km/h 13% 0.00in /  0mm 21.0 W/m2
16:37 74.7 °F /  23.7 °C 20.5 °F /  -6.4 °C 30.14in /  1020.5hPa SSE 4.0mph /  6.4km/h 8.0mph /  12.9km/h 13% 0.00in /  0mm 21.0 W/m2
16:43 74.1 °F /  23.4 °C 20.1 °F /  -6.6 °C 30.14in /  1020.5hPa SE 4.0mph /  6.4km/h 8.0mph /  12.9km/h 13% 0.00in /  0mm 19.0 W/m2
16:49 73.8 °F /  23.2 °C 21.6 °F /  -5.8 °C 30.14in /  1020.5hPa SE 2.0mph /  3.2km/h 7.0mph /  11.3km/h 14% 0.00in /  0mm 18.0 W/m2
16:55 73.2 °F /  22.9 °C 21.2 °F /  -6 °C 30.14in /  1020.5hPa SE 0.9mph /  1.4km/h 5.0mph /  8km/h 14% 0.00in /  0mm 18.0 W/m2
17:02 72.9 °F /  22.7 °C 22.5 °F /  -5.3 °C 30.15in /  1020.9hPa WSW 0.9mph /  1.4km/h 6.0mph /  9.7km/h 15% 0.00in /  0mm 14.0 W/m2
17:08 72.1 °F /  22.3 °C 21.9 °F /  -5.6 °C 30.15in /  1020.9hPa South 2.9mph /  4.7km/h 4.0mph /  6.4km/h 15% 0.00in /  0mm 12.0 W/m2
17:14 71.6 °F /  22 °C 21.6 °F /  -5.8 °C 30.15in /  1020.9hPa ESE 2.0mph /  3.2km/h 8.0mph /  12.9km/h 15% 0.00in /  0mm 9.0 W/m2
17:20 71.1 °F /  21.7 °C 21.0 °F /  -6.1 °C 30.16in /  1021.2hPa Calm   7.0mph /  11.3km/h 15% 0.00in /  0mm 5.0 W/m2
17:26 70.3 °F /  21.3 °C 22.1 °F /  -5.5 °C 30.16in /  1021.2hPa Calm   7.0mph /  11.3km/h 16% 0.00in /  0mm 0.0 W/m2
17:34 69.8 °F /  21 °C 21.6 °F /  -5.8 °C 30.16in /  1021.2hPa Calm   2.0mph /  3.2km/h 16% 0.00in /  0mm 0.0 W/m2
17:40 69.3 °F /  20.7 °C 21.2 °F /  -6 °C 30.16in /  1021.2hPa Calm   5.0mph /  8km/h 16% 0.00in /  0mm 0.0 W/m2
17:45 68.5 °F /  20.3 °C 21.9 °F /  -5.6 °C 30.16in /  1021.2hPa SE 2.9mph /  4.7km/h 4.0mph /  6.4km/h 17% 0.00in /  0mm 0.0 W/m2
17:51 68.4 °F /  20.2 °C 20.5 °F /  -6.4 °C 30.16in /  1021.2hPa SSE 6.0mph /  9.7km/h 9.0mph /  14.5km/h 16% 0.00in /  0mm 0.0 W/m2
17:57 68.0 °F /  20 °C 21.6 °F /  -5.8 °C 30.16in /  1021.2hPa SSE 2.0mph /  3.2km/h 9.0mph /  14.5km/h 17% 0.00in /  0mm 0.0 W/m2
18:04 67.6 °F /  19.8 °C 21.2 °F /  -6 °C 30.17in /  1021.6hPa SE 4.0mph /  6.4km/h 4.0mph /  6.4km/h 17% 0.00in /  0mm 0.0 W/m2
18:10 67.5 °F /  19.7 °C 21.2 °F /  -6 °C 30.17in /  1021.6hPa SSE 2.9mph /  4.7km/h 3.0mph /  4.8km/h 17% 0.00in /  0mm 0.0 W/m2
18:15 66.9 °F /  19.4 °C 20.7 °F /  -6.3 °C 30.17in /  1021.6hPa South 2.9mph /  4.7km/h 4.0mph /  6.4km/h 17% 0.00in /  0mm 0.0 W/m2
18:21 66.4 °F /  19.1 °C 20.3 °F /  -6.5 °C 30.17in /  1021.6hPa SE 0.9mph /  1.4km/h 4.0mph /  6.4km/h 17% 0.00in /  0mm 0.0 W/m2
18:27 66.0 °F /  18.9 °C 19.9 °F /  -6.7 °C 30.17in /  1021.6hPa Calm     17% 0.00in /  0mm 0.0 W/m2
18:34 65.7 °F /  18.7 °C 21.0 °F /  -6.1 °C 30.18in /  1021.9hPa Calm     18% 0.00in /  0mm 0.0 W/m2
18:40 64.9 °F /  18.3 °C 21.7 °F /  -5.7 °C 30.18in /  1021.9hPa Calm     19% 0.00in /  0mm 0.0 W/m2
18:46 64.2 °F /  17.9 °C 21.0 °F /  -6.1 °C 30.18in /  1021.9hPa Calm     19% 0.00in /  0mm 0.0 W/m2
18:52 63.3 °F /  17.4 °C 21.6 °F /  -5.8 °C 30.18in /  1021.9hPa Calm     20% 0.00in /  0mm 0.0 W/m2
18:58 62.2 °F /  16.8 °C 21.7 °F /  -5.7 °C 30.18in /  1021.9hPa Calm     21% 0.00in /  0mm 0.0 W/m2
19:04 61.5 °F /  16.4 °C 21.2 °F /  -6 °C 30.18in /  1021.9hPa Calm     21% 0.00in /  0mm 0.0 W/m2
19:11 60.8 °F /  16 °C 21.7 °F /  -5.7 °C 30.18in /  1021.9hPa Calm     22% 0.00in /  0mm 0.0 W/m2
19:17 60.3 °F /  15.7 °C 21.2 °F /  -6 °C 30.18in /  1021.9hPa Calm     22% 0.00in /  0mm 0.0 W/m2
19:23 59.5 °F /  15.3 °C 21.7 °F /  -5.7 °C 30.18in /  1021.9hPa Calm     23% 0.00in /  0mm 0.0 W/m2
19:29 58.8 °F /  14.9 °C 21.0 °F /  -6.1 °C 30.18in /  1021.9hPa Calm     23% 0.00in /  0mm 0.0 W/m2
19:35 58.1 °F /  14.5 °C 20.5 °F /  -6.4 °C 30.18in /  1021.9hPa Calm     23% 0.00in /  0mm 0.0 W/m2
19:41 57.6 °F /  14.2 °C 21.0 °F /  -6.1 °C 30.18in /  1021.9hPa Calm     24% 0.00in /  0mm 0.0 W/m2
19:47 57.0 °F /  13.9 °C 20.5 °F /  -6.4 °C 30.18in /  1021.9hPa Calm     24% 0.00in /  0mm 0.0 W/m2
19:53 56.5 °F /  13.6 °C 21.0 °F /  -6.1 °C 30.18in /  1021.9hPa Calm     25% 0.00in /  0mm 0.0 W/m2
19:59 55.9 °F /  13.3 °C 21.6 °F /  -5.8 °C 30.18in /  1021.9hPa Calm     26% 0.00in /  0mm 0.0 W/m2
20:06 55.4 °F /  13 °C 21.0 °F /  -6.1 °C 30.18in /  1021.9hPa Calm     26% 0.00in /  0mm 0.0 W/m2
20:12 55.0 °F /  12.8 °C 20.8 °F /  -6.2 °C 30.18in /  1021.9hPa Calm     26% 0.00in /  0mm 0.0 W/m2
20:18 54.5 °F /  12.5 °C 20.3 °F /  -6.5 °C 30.18in /  1021.9hPa Calm     26% 0.00in /  0mm 0.0 W/m2
20:24 54.1 °F /  12.3 °C 20.8 °F /  -6.2 °C 30.18in /  1021.9hPa Calm     27% 0.00in /  0mm 0.0 W/m2
20:30 53.8 °F /  12.1 °C 20.7 °F /  -6.3 °C 30.19in /  1022.2hPa Calm     27% 0.00in /  0mm 0.0 W/m2
20:36 53.4 °F /  11.9 °C 21.2 °F /  -6 °C 30.18in /  1021.9hPa Calm     28% 0.00in /  0mm 0.0 W/m2
20:42 53.1 °F /  11.7 °C 20.8 °F /  -6.2 °C 30.19in /  1022.2hPa Calm     28% 0.00in /  0mm 0.0 W/m2
20:49 52.9 °F /  11.6 °C 20.7 °F /  -6.3 °C 30.18in /  1021.9hPa Calm     28% 0.00in /  0mm 0.0 W/m2
20:55 52.5 °F /  11.4 °C 21.2 °F /  -6 °C 30.19in /  1022.2hPa Calm     29% 0.00in /  0mm 0.0 W/m2
21:01 52.5 °F /  11.4 °C 20.3 °F /  -6.5 °C 30.19in /  1022.2hPa Calm   1.0mph /  1.6km/h 28% 0.00in /  0mm 0.0 W/m2
21:07 52.3 °F /  11.3 °C 20.1 °F /  -6.6 °C 30.18in /  1021.9hPa Calm     28% 0.00in /  0mm 0.0 W/m2
21:13 52.3 °F /  11.3 °C 20.1 °F /  -6.6 °C 30.18in /  1021.9hPa Calm     28% 0.00in /  0mm 0.0 W/m2
21:19 52.5 °F /  11.4 °C 20.3 °F /  -6.5 °C 30.18in /  1021.9hPa Calm     28% 0.00in /  0mm 0.0 W/m2
21:25 52.5 °F /  11.4 °C 20.3 °F /  -6.5 °C 30.18in /  1021.9hPa Calm     28% 0.00in /  0mm 0.0 W/m2
21:32 52.3 °F /  11.3 °C 20.1 °F /  -6.6 °C 30.18in /  1021.9hPa Calm     28% 0.00in /  0mm 0.0 W/m2
21:38 52.2 °F /  11.2 °C 20.1 °F /  -6.6 °C 30.18in /  1021.9hPa Calm     28% 0.00in /  0mm 0.0 W/m2
21:44 52.0 °F /  11.1 °C 19.9 °F /  -6.7 °C 30.18in /  1021.9hPa Calm   1.0mph /  1.6km/h 28% 0.00in /  0mm 0.0 W/m2
21:50 52.0 °F /  11.1 °C 20.7 °F /  -6.3 °C 30.18in /  1021.9hPa Calm   2.0mph /  3.2km/h 29% 0.00in /  0mm 0.0 W/m2
21:56 52.2 °F /  11.2 °C 20.8 °F /  -6.2 °C 30.18in /  1021.9hPa Calm   1.0mph /  1.6km/h 29% 0.00in /  0mm 0.0 W/m2
22:02 52.3 °F /  11.3 °C 20.1 °F /  -6.6 °C 30.18in /  1021.9hPa Calm   2.0mph /  3.2km/h 28% 0.00in /  0mm 0.0 W/m2
22:09 52.5 °F /  11.4 °C 20.3 °F /  -6.5 °C 30.17in /  1021.6hPa Calm   5.0mph /  8km/h 28% 0.00in /  0mm 0.0 W/m2
22:15 52.9 °F /  11.6 °C 20.7 °F /  -6.3 °C 30.17in /  1021.6hPa Calm   4.0mph /  6.4km/h 28% 0.00in /  0mm 0.0 W/m2
22:21 53.1 °F /  11.7 °C 19.9 °F /  -6.7 °C 30.17in /  1021.6hPa NE 6.9mph /  11.1km/h 7.0mph /  11.3km/h 27% 0.00in /  0mm 0.0 W/m2
22:27 53.6 °F /  12 °C 20.5 °F /  -6.4 °C 30.17in /  1021.6hPa Calm   8.0mph /  12.9km/h 27% 0.00in /  0mm 0.0 W/m2
22:33 54.1 °F /  12.3 °C 20.8 °F /  -6.2 °C 30.17in /  1021.6hPa Calm   4.0mph /  6.4km/h 27% 0.00in /  0mm 0.0 W/m2
22:39 54.5 °F /  12.5 °C 20.3 °F /  -6.5 °C 30.17in /  1021.6hPa Calm   5.0mph /  8km/h 26% 0.00in /  0mm 0.0 W/m2
22:45 54.7 °F /  12.6 °C 20.5 °F /  -6.4 °C 30.17in /  1021.6hPa Calm   2.0mph /  3.2km/h 26% 0.00in /  0mm 0.0 W/m2
22:52 54.3 °F /  12.4 °C 20.1 °F /  -6.6 °C 30.18in /  1021.9hPa Calm   1.0mph /  1.6km/h 26% 0.00in /  0mm 0.0 W/m2
22:58 54.1 °F /  12.3 °C 19.9 °F /  -6.7 °C 30.18in /  1021.9hPa Calm     26% 0.00in /  0mm 0.0 W/m2
23:04 53.8 °F /  12.1 °C 20.7 °F /  -6.3 °C 30.18in /  1021.9hPa Calm     27% 0.00in /  0mm 0.0 W/m2
23:10 53.2 °F /  11.8 °C 20.1 °F /  -6.6 °C 30.18in /  1021.9hPa Calm     27% 0.00in /  0mm 0.0 W/m2
23:16 52.5 °F /  11.4 °C 20.3 °F /  -6.5 °C 30.17in /  1021.6hPa Calm     28% 0.00in /  0mm 0.0 W/m2
23:22 52.0 °F /  11.1 °C 20.7 °F /  -6.3 °C 30.17in /  1021.6hPa Calm     29% 0.00in /  0mm 0.0 W/m2
23:28 51.4 °F /  10.8 °C 21.0 °F /  -6.1 °C 30.17in /  1021.6hPa Calm     30% 0.00in /  0mm 0.0 W/m2
23:34 50.7 °F /  10.4 °C 20.5 °F /  -6.4 °C 30.17in /  1021.6hPa Calm     30% 0.00in /  0mm 0.0 W/m2
23:40 50.0 °F /  10 °C 20.5 °F /  -6.4 °C 30.17in /  1021.6hPa Calm     31% 0.00in /  0mm 0.0 W/m2
23:47 49.5 °F /  9.7 °C 20.1 °F /  -6.6 °C 30.17in /  1021.6hPa Calm     31% 0.00in /  0mm 0.0 W/m2
23:53 48.9 °F /  9.4 °C 20.3 °F /  -6.5 °C 30.17in /  1021.6hPa Calm     32% 0.00in /  0mm 0.0 W/m2
23:59 48.4 °F /  9.1 °C 19.9 °F /  -6.7 °C 30.17in /  1021.6hPa Calm     32% 0.00in /  0mm 0.0 W/m2
Olympia, Windhoek, Namibia
Compliments of Weather Underground - 3 mb